sensor_id;sensor_type;location;lat;lon;timestamp;pressure;altitude;pressure_sealevel;temperature;humidity
48874;BME280;66155;46.204;5.220;2023-03-21T00:01:44;98933.03;;;11.14;53.96
48874;BME280;66155;46.204;5.220;2023-03-21T00:06:44;98917.09;;;11.10;54.32
48874;BME280;66155;46.204;5.220;2023-03-21T00:11:45;98920.97;;;11.08;54.43
48874;BME280;66155;46.204;5.220;2023-03-21T00:16:47;98916.78;;;11.07;54.18
48874;BME280;66155;46.204;5.220;2023-03-21T00:21:51;98916.47;;;11.03;54.09
48874;BME280;66155;46.204;5.220;2023-03-21T00:26:52;98909.78;;;11.07;54.46
48874;BME280;66155;46.204;5.220;2023-03-21T00:31:52;98907.69;;;11.09;54.12
48874;BME280;66155;46.204;5.220;2023-03-21T00:36:53;98909.72;;;11.02;54.33
48874;BME280;66155;46.204;5.220;2023-03-21T00:41:53;98906.81;;;10.98;54.51
48874;BME280;66155;46.204;5.220;2023-03-21T00:46:54;98909.59;;;10.92;54.38
48874;BME280;66155;46.204;5.220;2023-03-21T00:51:54;98900.13;;;10.86;54.82
48874;BME280;66155;46.204;5.220;2023-03-21T00:56:55;98900.56;;;10.77;54.83
48874;BME280;66155;46.204;5.220;2023-03-21T01:01:56;98902.31;;;10.72;54.84
48874;BME280;66155;46.204;5.220;2023-03-21T01:06:59;98900.88;;;10.64;55.45
48874;BME280;66155;46.204;5.220;2023-03-21T01:11:59;98895.44;;;10.43;55.88
48874;BME280;66155;46.204;5.220;2023-03-21T01:17:00;98884.09;;;10.33;56.03
48874;BME280;66155;46.204;5.220;2023-03-21T01:22:00;98888.19;;;10.12;56.61
48874;BME280;66155;46.204;5.220;2023-03-21T01:27:02;98884.88;;;9.99;57.02
48874;BME280;66155;46.204;5.220;2023-03-21T01:32:02;98880.16;;;9.79;58.65
48874;BME280;66155;46.204;5.220;2023-03-21T01:37:03;98885.97;;;9.69;58.33
48874;BME280;66155;46.204;5.220;2023-03-21T01:42:03;98876.34;;;9.70;58.27
48874;BME280;66155;46.204;5.220;2023-03-21T01:47:04;98875.56;;;9.69;58.06
48874;BME280;66155;46.204;5.220;2023-03-21T01:52:08;98873.44;;;9.66;58.41
48874;BME280;66155;46.204;5.220;2023-03-21T01:57:14;98873.44;;;9.66;58.09
48874;BME280;66155;46.204;5.220;2023-03-21T02:02:20;98872.88;;;9.64;58.85
48874;BME280;66155;46.204;5.220;2023-03-21T02:07:31;98867.97;;;9.68;58.29
48874;BME280;66155;46.204;5.220;2023-03-21T02:12:35;98866.72;;;9.70;58.03
48874;BME280;66155;46.204;5.220;2023-03-21T02:28:33;98864.75;;;9.44;59.20
48874;BME280;66155;46.204;5.220;2023-03-21T02:39:14;98851.03;;;9.65;58.64
48874;BME280;66155;46.204;5.220;2023-03-21T02:44:23;98849.84;;;9.73;58.19
48874;BME280;66155;46.204;5.220;2023-03-21T02:49:38;98845.28;;;9.80;57.91
48874;BME280;66155;46.204;5.220;2023-03-21T02:54:42;98849.78;;;9.85;58.20
48874;BME280;66155;46.204;5.220;2023-03-21T02:59:45;98845.13;;;9.87;57.92
48874;BME280;66155;46.204;5.220;2023-03-21T03:04:47;98842.53;;;9.87;57.91
48874;BME280;66155;46.204;5.220;2023-03-21T03:10:22;98842.53;;;9.87;57.90
48874;BME280;66155;46.204;5.220;2023-03-21T03:20:44;98826.44;;;9.73;58.03
48874;BME280;66155;46.204;5.220;2023-03-21T03:25:52;98827.72;;;9.70;57.94
48874;BME280;66155;46.204;5.220;2023-03-21T03:30:56;98829.84;;;9.74;58.12
48874;BME280;66155;46.204;5.220;2023-03-21T03:35:58;98828.72;;;9.69;58.10
48874;BME280;66155;46.204;5.220;2023-03-21T03:41:08;98826.22;;;9.58;58.41
48874;BME280;66155;46.204;5.220;2023-03-21T03:46:18;98814.59;;;9.31;59.09
48874;BME280;66155;46.204;5.220;2023-03-21T03:51:28;98821.38;;;9.32;59.56
48874;BME280;66155;46.204;5.220;2023-03-21T03:56:31;98815.69;;;9.36;58.77
48874;BME280;66155;46.204;5.220;2023-03-21T04:01:33;98814.91;;;9.35;58.54
48874;BME280;66155;46.204;5.220;2023-03-21T04:06:34;98807.03;;;9.30;58.90
48874;BME280;66155;46.204;5.220;2023-03-21T04:11:34;98807.34;;;9.33;58.85
48874;BME280;66155;46.204;5.220;2023-03-21T04:16:35;98803.78;;;9.40;58.44
48874;BME280;66155;46.204;5.220;2023-03-21T04:21:35;98811.94;;;9.43;58.42
48874;BME280;66155;46.204;5.220;2023-03-21T04:26:36;98809.47;;;9.54;58.52
48874;BME280;66155;46.204;5.220;2023-03-21T04:31:37;98803.13;;;9.61;58.21
48874;BME280;66155;46.204;5.220;2023-03-21T04:36:40;98807.28;;;9.62;58.30
48874;BME280;66155;46.204;5.220;2023-03-21T04:41:45;98805.47;;;9.63;58.54
48874;BME280;66155;46.204;5.220;2023-03-21T04:46:46;98809.00;;;9.57;58.69
48874;BME280;66155;46.204;5.220;2023-03-21T04:51:46;98813.72;;;9.43;59.75
48874;BME280;66155;46.204;5.220;2023-03-21T04:56:47;98820.66;;;9.37;59.84
48874;BME280;66155;46.204;5.220;2023-03-21T05:01:47;98812.59;;;9.22;60.02
48874;BME280;66155;46.204;5.220;2023-03-21T05:06:49;98814.63;;;9.03;60.83
48874;BME280;66155;46.204;5.220;2023-03-21T05:11:50;98823.16;;;8.86;61.34
48874;BME280;66155;46.204;5.220;2023-03-21T05:16:51;98818.09;;;8.80;62.00
48874;BME280;66155;46.204;5.220;2023-03-21T05:21:52;98808.16;;;8.77;62.02
48874;BME280;66155;46.204;5.220;2023-03-21T05:26:52;98812.44;;;8.83;62.25
48874;BME280;66155;46.204;5.220;2023-03-21T05:31:56;98813.25;;;8.83;62.04
48874;BME280;66155;46.204;5.220;2023-03-21T05:36:56;98811.38;;;8.96;61.72
48874;BME280;66155;46.204;5.220;2023-03-21T05:41:57;98798.00;;;9.04;61.59
48874;BME280;66155;46.204;5.220;2023-03-21T05:46:58;98805.25;;;9.02;61.37
48874;BME280;66155;46.204;5.220;2023-03-21T05:51:58;98809.56;;;8.96;61.76
48874;BME280;66155;46.204;5.220;2023-03-21T05:56:59;98822.81;;;8.83;62.11
48874;BME280;66155;46.204;5.220;2023-03-21T06:01:59;98841.81;;;8.83;62.51
48874;BME280;66155;46.204;5.220;2023-03-21T06:07:00;98845.84;;;8.91;62.18
48874;BME280;66155;46.204;5.220;2023-03-21T06:12:00;98848.44;;;8.91;62.36
48874;BME280;66155;46.204;5.220;2023-03-21T06:17:01;98850.28;;;8.79;62.77
48874;BME280;66155;46.204;5.220;2023-03-21T06:22:01;98844.09;;;8.80;62.62
48874;BME280;66155;46.204;5.220;2023-03-21T06:27:02;98843.88;;;8.81;62.59
48874;BME280;66155;46.204;5.220;2023-03-21T06:32:02;98837.63;;;8.82;62.58
48874;BME280;66155;46.204;5.220;2023-03-21T06:37:03;98838.28;;;8.89;62.94
48874;BME280;66155;46.204;5.220;2023-03-21T06:42:03;98835.78;;;8.94;63.18
48874;BME280;66155;46.204;5.220;2023-03-21T06:47:04;98849.19;;;9.03;63.32
48874;BME280;66155;46.204;5.220;2023-03-21T06:52:05;98832.97;;;9.13;63.59
48874;BME280;66155;46.204;5.220;2023-03-21T06:57:05;98843.00;;;9.21;63.76
48874;BME280;66155;46.204;5.220;2023-03-21T07:02:06;98845.34;;;9.35;63.19
48874;BME280;66155;46.204;5.220;2023-03-21T07:07:06;98854.00;;;9.57;62.75
48874;BME280;66155;46.204;5.220;2023-03-21T07:12:07;98851.59;;;9.67;62.75
48874;BME280;66155;46.204;5.220;2023-03-21T07:17:07;98855.38;;;9.60;62.76
48874;BME280;66155;46.204;5.220;2023-03-21T07:22:08;98867.03;;;9.57;63.13
48874;BME280;66155;46.204;5.220;2023-03-21T07:27:08;98878.88;;;9.65;63.24
48874;BME280;66155;46.204;5.220;2023-03-21T07:32:10;98877.97;;;9.59;63.31
48874;BME280;66155;46.204;5.220;2023-03-21T07:37:10;98884.00;;;9.77;63.45
48874;BME280;66155;46.204;5.220;2023-03-21T07:42:11;98882.50;;;9.98;62.85
48874;BME280;66155;46.204;5.220;2023-03-21T07:47:12;98884.59;;;10.18;62.41
48874;BME280;66155;46.204;5.220;2023-03-21T07:52:12;98890.06;;;10.33;62.17
48874;BME280;66155;46.204;5.220;2023-03-21T07:57:13;98894.69;;;10.48;61.98
48874;BME280;66155;46.204;5.220;2023-03-21T08:02:14;98886.53;;;10.61;62.21
48874;BME280;66155;46.204;5.220;2023-03-21T08:07:15;98877.16;;;10.82;61.74
48874;BME280;66155;46.204;5.220;2023-03-21T08:12:16;98873.97;;;11.02;61.61
48874;BME280;66155;46.204;5.220;2023-03-21T08:17:16;98883.19;;;11.10;61.33
48874;BME280;66155;46.204;5.220;2023-03-21T08:22:17;98880.09;;;11.13;61.46
48874;BME280;66155;46.204;5.220;2023-03-21T08:27:18;98877.34;;;11.25;61.22
48874;BME280;66155;46.204;5.220;2023-03-21T08:32:19;98872.25;;;11.35;60.81
48874;BME280;66155;46.204;5.220;2023-03-21T08:37:25;98874.78;;;11.57;60.77
48874;BME280;66155;46.204;5.220;2023-03-21T08:42:27;98878.22;;;11.63;60.58
48874;BME280;66155;46.204;5.220;2023-03-21T08:47:27;98866.31;;;11.77;60.50
48874;BME280;66155;46.204;5.220;2023-03-21T08:52:28;98875.03;;;11.88;60.01
48874;BME280;66155;46.204;5.220;2023-03-21T08:57:29;98874.19;;;11.83;59.89
48874;BME280;66155;46.204;5.220;2023-03-21T09:02:30;98874.25;;;11.88;59.72
48874;BME280;66155;46.204;5.220;2023-03-21T09:07:30;98870.06;;;11.87;59.96
48874;BME280;66155;46.204;5.220;2023-03-21T09:12:33;98866.16;;;11.89;60.17
48874;BME280;66155;46.204;5.220;2023-03-21T09:17:34;98877.22;;;11.96;59.81
48874;BME280;66155;46.204;5.220;2023-03-21T09:22:38;98868.88;;;12.00;59.72
48874;BME280;66155;46.204;5.220;2023-03-21T09:27:39;98873.09;;;12.06;59.51
48874;BME280;66155;46.204;5.220;2023-03-21T09:32:39;98877.59;;;12.15;59.31
48874;BME280;66155;46.204;5.220;2023-03-21T09:37:41;98870.22;;;12.07;59.32
48874;BME280;66155;46.204;5.220;2023-03-21T09:48:18;98880.03;;;12.32;59.12
48874;BME280;66155;46.204;5.220;2023-03-21T09:53:34;98870.44;;;12.43;58.62
48874;BME280;66155;46.204;5.220;2023-03-21T09:58:44;98868.31;;;12.35;59.01
48874;BME280;66155;46.204;5.220;2023-03-21T10:03:45;98860.91;;;12.74;58.52
48874;BME280;66155;46.204;5.220;2023-03-21T10:08:47;98853.94;;;13.01;57.93
48874;BME280;66155;46.204;5.220;2023-03-21T10:13:57;98859.16;;;13.11;57.86
48874;BME280;66155;46.204;5.220;2023-03-21T10:19:09;98856.09;;;13.29;57.21
48874;BME280;66155;46.204;5.220;2023-03-21T10:24:13;98842.53;;;13.38;57.64
48874;BME280;66155;46.204;5.220;2023-03-21T10:29:16;98840.41;;;13.60;57.30
48874;BME280;66155;46.204;5.220;2023-03-21T10:34:26;98841.97;;;13.77;56.78
48874;BME280;66155;46.204;5.220;2023-03-21T10:39:45;98850.34;;;13.94;56.46
48874;BME280;66155;46.204;5.220;2023-03-21T10:44:48;98841.69;;;14.04;56.68
48874;BME280;66155;46.204;5.220;2023-03-21T10:49:49;98837.97;;;14.25;55.89
48874;BME280;66155;46.204;5.220;2023-03-21T11:00:22;98849.50;;;14.30;53.85
48874;BME280;66155;46.204;5.220;2023-03-21T11:05:40;98843.22;;;14.31;53.58
48874;BME280;66155;46.204;5.220;2023-03-21T11:16:04;98834.47;;;14.56;53.79
48874;BME280;66155;46.204;5.220;2023-03-21T11:21:08;98826.84;;;14.70;53.58
48874;BME280;66155;46.204;5.220;2023-03-21T11:26:19;98825.25;;;14.69;53.58
48874;BME280;66155;46.204;5.220;2023-03-21T11:31:39;98831.16;;;14.95;53.09
48874;BME280;66155;46.204;5.220;2023-03-21T11:36:40;98833.44;;;15.12;52.94
48874;BME280;66155;46.204;5.220;2023-03-21T11:41:41;98823.81;;;15.31;51.44
48874;BME280;66155;46.204;5.220;2023-03-21T11:46:46;98817.72;;;15.41;50.96
48874;BME280;66155;46.204;5.220;2023-03-21T11:51:56;98802.94;;;15.50;50.62
48874;BME280;66155;46.204;5.220;2023-03-21T11:57:06;98803.09;;;15.64;49.86
48874;BME280;66155;46.204;5.220;2023-03-21T12:12:40;98787.13;;;16.14;49.10
48874;BME280;66155;46.204;5.220;2023-03-21T12:23:05;98774.97;;;16.42;48.33
48874;BME280;66155;46.204;5.220;2023-03-21T12:28:26;98773.81;;;16.48;46.60
48874;BME280;66155;46.204;5.220;2023-03-21T12:44:23;98757.28;;;16.67;45.15
48874;BME280;66155;46.204;5.220;2023-03-21T12:49:34;98748.75;;;16.94;45.03
48874;BME280;66155;46.204;5.220;2023-03-21T12:54:46;98745.75;;;17.20;44.80
48874;BME280;66155;46.204;5.220;2023-03-21T13:00:12;98740.22;;;17.49;44.10
48874;BME280;66155;46.204;5.220;2023-03-21T13:10:19;98730.75;;;17.34;44.54
48874;BME280;66155;46.204;5.220;2023-03-21T13:25:46;98732.84;;;18.20;42.22
48874;BME280;66155;46.204;5.220;2023-03-21T13:30:47;98710.31;;;18.87;41.88
48874;BME280;66155;46.204;5.220;2023-03-21T13:35:59;98705.25;;;19.62;40.78
48874;BME280;66155;46.204;5.220;2023-03-21T13:41:21;98687.72;;;20.32;39.17
48874;BME280;66155;46.204;5.220;2023-03-21T13:56:47;98692.34;;;22.42;33.77
48874;BME280;66155;46.204;5.220;2023-03-21T14:07:07;98679.13;;;23.95;32.77
48874;BME280;66155;46.204;5.220;2023-03-21T14:12:14;98680.59;;;24.21;31.42
48874;BME280;66155;46.204;5.220;2023-03-21T14:17:27;98678.16;;;24.16;30.14
48874;BME280;66155;46.204;5.220;2023-03-21T14:22:28;98664.72;;;23.34;30.44
48874;BME280;66155;46.204;5.220;2023-03-21T14:27:32;98672.94;;;22.20;31.21
48874;BME280;66155;46.204;5.220;2023-03-21T14:32:33;98671.81;;;21.50;32.42
48874;BME280;66155;46.204;5.220;2023-03-21T14:37:40;98677.13;;;20.85;32.56
48874;BME280;66155;46.204;5.220;2023-03-21T14:42:45;98670.75;;;20.42;33.51
48874;BME280;66155;46.204;5.220;2023-03-21T14:47:55;98666.59;;;19.75;34.43
48874;BME280;66155;46.204;5.220;2023-03-21T14:52:57;98665.75;;;19.57;34.64
48874;BME280;66155;46.204;5.220;2023-03-21T14:57:58;98676.50;;;19.61;34.99
48874;BME280;66155;46.204;5.220;2023-03-21T15:02:58;98669.28;;;19.44;35.21
48874;BME280;66155;46.204;5.220;2023-03-21T15:13:17;98671.06;;;19.26;35.16
48874;BME280;66155;46.204;5.220;2023-03-21T15:18:24;98669.03;;;19.63;35.07
48874;BME280;66155;46.204;5.220;2023-03-21T15:23:30;98659.94;;;19.37;35.33
48874;BME280;66155;46.204;5.220;2023-03-21T15:28:33;98666.13;;;19.02;36.19
48874;BME280;66155;46.204;5.220;2023-03-21T15:33:34;98663.41;;;19.15;36.06
48874;BME280;66155;46.204;5.220;2023-03-21T15:43:38;98646.53;;;18.94;36.63
48874;BME280;66155;46.204;5.220;2023-03-21T15:48:38;98652.34;;;18.82;36.93
48874;BME280;66155;46.204;5.220;2023-03-21T15:53:41;98652.63;;;18.80;37.16
48874;BME280;66155;46.204;5.220;2023-03-21T15:58:43;98638.84;;;18.61;37.40
48874;BME280;66155;46.204;5.220;2023-03-21T16:03:54;98644.06;;;18.52;37.69
48874;BME280;66155;46.204;5.220;2023-03-21T16:14:08;98650.13;;;18.16;37.88
48874;BME280;66155;46.204;5.220;2023-03-21T16:19:09;98649.59;;;17.92;38.69
48874;BME280;66155;46.204;5.220;2023-03-21T16:24:09;98656.44;;;17.79;38.58
48874;BME280;66155;46.204;5.220;2023-03-21T16:29:13;98649.88;;;17.76;38.88
48874;BME280;66155;46.204;5.220;2023-03-21T16:34:14;98656.81;;;17.72;38.84
48874;BME280;66155;46.204;5.220;2023-03-21T16:39:18;98653.50;;;17.66;39.18
48874;BME280;66155;46.204;5.220;2023-03-21T16:44:19;98661.50;;;17.61;39.05
48874;BME280;66155;46.204;5.220;2023-03-21T16:49:26;98663.66;;;17.45;39.63
48874;BME280;66155;46.204;5.220;2023-03-21T16:54:26;98663.16;;;17.43;39.75
48874;BME280;66155;46.204;5.220;2023-03-21T16:59:27;98668.81;;;17.37;39.61
48874;BME280;66155;46.204;5.220;2023-03-21T17:04:27;98678.38;;;17.33;39.98
48874;BME280;66155;46.204;5.220;2023-03-21T17:09:28;98678.34;;;17.19;40.46
48874;BME280;66155;46.204;5.220;2023-03-21T17:14:28;98675.88;;;17.08;40.88
48874;BME280;66155;46.204;5.220;2023-03-21T17:19:29;98676.84;;;16.99;40.96
48874;BME280;66155;46.204;5.220;2023-03-21T17:24:29;98673.81;;;16.91;41.23
48874;BME280;66155;46.204;5.220;2023-03-21T17:29:30;98671.25;;;16.86;41.25
48874;BME280;66155;46.204;5.220;2023-03-21T17:34:30;98671.59;;;16.80;41.24
48874;BME280;66155;46.204;5.220;2023-03-21T17:39:31;98666.56;;;16.83;41.33
48874;BME280;66155;46.204;5.220;2023-03-21T17:44:32;98666.31;;;16.99;41.34
48874;BME280;66155;46.204;5.220;2023-03-21T17:49:32;98668.19;;;17.12;41.15
48874;BME280;66155;46.204;5.220;2023-03-21T17:54:33;98661.47;;;17.06;41.34
48874;BME280;66155;46.204;5.220;2023-03-21T17:59:33;98663.69;;;16.99;41.61
48874;BME280;66155;46.204;5.220;2023-03-21T18:04:34;98660.03;;;16.95;41.69
48874;BME280;66155;46.204;5.220;2023-03-21T18:09:34;98653.25;;;16.94;41.58
48874;BME280;66155;46.204;5.220;2023-03-21T18:14:35;98659.28;;;16.94;41.81
48874;BME280;66155;46.204;5.220;2023-03-21T18:19:35;98658.50;;;16.94;41.86
48874;BME280;66155;46.204;5.220;2023-03-21T18:24:37;98657.72;;;16.93;41.74
48874;BME280;66155;46.204;5.220;2023-03-21T18:29:37;98656.94;;;16.92;41.77
48874;BME280;66155;46.204;5.220;2023-03-21T18:34:38;98661.97;;;16.89;42.06
48874;BME280;66155;46.204;5.220;2023-03-21T18:39:39;98668.63;;;16.86;42.32
48874;BME280;66155;46.204;5.220;2023-03-21T18:44:41;98681.28;;;16.84;41.97
48874;BME280;66155;46.204;5.220;2023-03-21T18:49:44;98677.63;;;16.80;42.26
48874;BME280;66155;46.204;5.220;2023-03-21T18:54:45;98681.91;;;16.76;42.05
48874;BME280;66155;46.204;5.220;2023-03-21T18:59:46;98681.69;;;16.72;42.52
48874;BME280;66155;46.204;5.220;2023-03-21T19:04:47;98673.31;;;16.70;42.63
48874;BME280;66155;46.204;5.220;2023-03-21T19:09:47;98671.25;;;16.67;42.68
48874;BME280;66155;46.204;5.220;2023-03-21T19:14:48;98668.13;;;16.65;42.38
48874;BME280;66155;46.204;5.220;2023-03-21T19:19:48;98673.94;;;16.62;42.86
48874;BME280;66155;46.204;5.220;2023-03-21T19:24:49;98683.22;;;16.60;42.80
48874;BME280;66155;46.204;5.220;2023-03-21T19:29:50;98680.84;;;16.58;42.69
48874;BME280;66155;46.204;5.220;2023-03-21T19:34:50;98680.38;;;16.56;42.61
48874;BME280;66155;46.204;5.220;2023-03-21T19:39:51;98678.03;;;16.54;42.71
48874;BME280;66155;46.204;5.220;2023-03-21T19:44:51;98683.91;;;16.46;43.10
48874;BME280;66155;46.204;5.220;2023-03-21T19:49:52;98686.03;;;16.44;42.99
48874;BME280;66155;46.204;5.220;2023-03-21T19:54:54;98684.13;;;16.31;43.52
48874;BME280;66155;46.204;5.220;2023-03-21T20:06:07;98686.34;;;16.24;43.56
48874;BME280;66155;46.204;5.220;2023-03-21T20:12:18;98690.78;;;16.23;43.83
48874;BME280;66155;46.204;5.220;2023-03-21T20:17:32;98684.47;;;16.24;44.03
48874;BME280;66155;46.204;5.220;2023-03-21T20:35:16;98698.22;;;15.97;44.64
48874;BME280;66155;46.204;5.220;2023-03-21T20:46:19;98698.63;;;15.85;45.13
48874;BME280;66155;46.204;5.220;2023-03-21T20:57:26;98693.22;;;15.71;45.42
48874;BME280;66155;46.204;5.220;2023-03-21T21:03:15;98689.13;;;15.65;45.78
48874;BME280;66155;46.204;5.220;2023-03-21T21:15:24;98691.63;;;15.51;46.19
48874;BME280;66155;46.204;5.220;2023-03-21T21:21:08;98694.56;;;15.45;45.90
48874;BME280;66155;46.204;5.220;2023-03-21T21:26:49;98703.56;;;15.38;45.86
48874;BME280;66155;46.204;5.220;2023-03-21T21:31:59;98710.44;;;15.29;46.21
48874;BME280;66155;46.204;5.220;2023-03-21T21:37:01;98702.78;;;15.09;46.37
48874;BME280;66155;46.204;5.220;2023-03-21T21:42:11;98695.75;;;14.99;46.78
48874;BME280;66155;46.204;5.220;2023-03-21T21:47:12;98695.28;;;14.92;46.55
48874;BME280;66155;46.204;5.220;2023-03-21T21:52:16;98685.84;;;14.91;46.63
48874;BME280;66155;46.204;5.220;2023-03-21T21:57:23;98689.03;;;14.88;46.83
48874;BME280;66155;46.204;5.220;2023-03-21T22:02:26;98684.63;;;14.78;47.18
48874;BME280;66155;46.204;5.220;2023-03-21T22:07:27;98674.19;;;14.73;47.10
48874;BME280;66155;46.204;5.220;2023-03-21T22:12:38;98676.03;;;14.67;47.22
48874;BME280;66155;46.204;5.220;2023-03-21T22:17:44;98680.28;;;14.63;47.29
48874;BME280;66155;46.204;5.220;2023-03-21T22:22:45;98681.09;;;14.58;47.33
48874;BME280;66155;46.204;5.220;2023-03-21T22:27:48;98684.53;;;14.49;47.51
48874;BME280;66155;46.204;5.220;2023-03-21T22:32:49;98683.78;;;14.43;47.57
48874;BME280;66155;46.204;5.220;2023-03-21T22:37:52;98683.78;;;14.43;47.61
48874;BME280;66155;46.204;5.220;2023-03-21T22:42:56;98691.41;;;14.39;47.70
48874;BME280;66155;46.204;5.220;2023-03-21T22:47:56;98683.84;;;14.33;47.98
48874;BME280;66155;46.204;5.220;2023-03-21T22:52:59;98686.22;;;14.29;48.18
48874;BME280;66155;46.204;5.220;2023-03-21T22:57:59;98693.84;;;14.25;48.78
48874;BME280;66155;46.204;5.220;2023-03-21T23:03:01;98687.59;;;14.21;48.69
48874;BME280;66155;46.204;5.220;2023-03-21T23:08:04;98681.28;;;14.17;49.17
48874;BME280;66155;46.204;5.220;2023-03-21T23:13:07;98670.06;;;14.12;49.04
48874;BME280;66155;46.204;5.220;2023-03-21T23:18:08;98675.88;;;14.03;49.22
48874;BME280;66155;46.204;5.220;2023-03-21T23:23:09;98679.81;;;13.96;49.38
48874;BME280;66155;46.204;5.220;2023-03-21T23:28:12;98679.31;;;13.88;49.92
48874;BME280;66155;46.204;5.220;2023-03-21T23:33:15;98680.69;;;13.81;49.97
48874;BME280;66155;46.204;5.220;2023-03-21T23:38:15;98678.34;;;13.74;50.16
48874;BME280;66155;46.204;5.220;2023-03-21T23:43:16;98684.91;;;13.72;50.38
48874;BME280;66155;46.204;5.220;2023-03-21T23:48:16;98696.41;;;13.65;50.61
48874;BME280;66155;46.204;5.220;2023-03-21T23:53:17;98687.28;;;13.63;50.47
48874;BME280;66155;46.204;5.220;2023-03-21T23:58:18;98682.31;;;13.61;50.76
